createdAt,value
2024-02-07T00:00:31.673Z,6.50
2024-02-07T00:02:58.736Z,8.15
2024-02-07T00:05:25.789Z,5.53
2024-02-07T00:07:52.701Z,10.60
2024-02-07T00:10:19.672Z,7.60
2024-02-07T00:12:46.476Z,6.95
2024-02-07T00:15:13.352Z,3.67
2024-02-07T00:17:40.135Z,8.20
2024-02-07T00:20:07.665Z,6.70
2024-02-07T00:22:35.090Z,4.68
2024-02-07T00:25:02.099Z,5.85
2024-02-07T00:27:29.063Z,7.30
2024-02-07T00:29:55.842Z,6.80
2024-02-07T00:32:22.648Z,5.65
2024-02-07T00:34:50.966Z,6.47
2024-02-07T00:37:18.064Z,3.55
2024-02-07T00:39:45.598Z,8.80
2024-02-07T00:42:12.393Z,4.85
2024-02-07T00:44:40.601Z,7.45
2024-02-07T00:47:07.537Z,4.82
2024-02-07T00:49:34.386Z,3.92
2024-02-07T00:52:01.188Z,6.13
2024-02-07T00:54:29.076Z,9.45
2024-02-07T00:56:56.754Z,11.18
2024-02-07T00:59:23.808Z,8.07
2024-02-07T01:01:51.323Z,9.45
2024-02-07T01:04:19.522Z,7.03
2024-02-07T01:07:11.535Z,9.25
2024-02-07T01:09:38.450Z,8.18
2024-02-07T01:12:05.597Z,7.75
2024-02-07T01:14:32.713Z,7.78
2024-02-07T01:16:59.703Z,9.98
2024-02-07T01:19:26.732Z,6.88
2024-02-07T01:21:53.624Z,10.07
2024-02-07T01:24:20.576Z,7.00
2024-02-07T01:26:48.399Z,9.02
2024-02-07T01:30:08.209Z,6.50
2024-02-07T01:32:35.194Z,6.60
2024-02-07T01:35:02.085Z,7.00
2024-02-07T01:37:28.981Z,7.25
2024-02-07T01:39:55.830Z,7.97
2024-02-07T01:42:22.817Z,3.22
2024-02-07T01:44:49.755Z,6.03
2024-02-07T01:47:16.687Z,7.72
2024-02-07T01:49:53.641Z,8.30
2024-02-07T01:52:23.308Z,3.58
2024-02-07T01:54:51.400Z,8.32
2024-02-07T01:57:18.574Z,11.05
2024-02-07T01:59:46.509Z,8.35
2024-02-07T02:02:13.698Z,7.03
2024-02-07T02:04:41.457Z,8.50
2024-02-07T02:07:08.540Z,5.35
2024-02-07T02:09:35.406Z,8.48
2024-02-07T02:12:03.643Z,10.35
2024-02-07T02:14:30.612Z,5.05
2024-02-07T02:16:57.400Z,3.97
2024-02-07T02:19:24.359Z,4.00
2024-02-07T02:22:25.071Z,9.88
2024-02-07T02:25:01.731Z,3.97
2024-02-07T02:27:52.886Z,7.35
2024-02-07T02:30:34.343Z,6.22
2024-02-07T02:33:09.936Z,7.75
2024-02-07T02:35:39.498Z,8.63
2024-02-07T02:38:06.377Z,7.93
2024-02-07T02:40:33.411Z,4.38
2024-02-07T02:43:00.421Z,6.30
2024-02-07T02:45:27.479Z,8.27
2024-02-07T02:47:55.410Z,5.90
2024-02-07T02:50:26.981Z,7.78
2024-02-07T02:52:54.149Z,7.32
2024-02-07T02:55:20.936Z,8.95
2024-02-07T02:57:48.325Z,6.22
2024-02-07T03:00:16.180Z,8.35
2024-02-07T03:02:44.713Z,7.57
2024-02-07T03:05:30.589Z,11.40
2024-02-07T03:08:06.696Z,7.82
2024-02-07T03:10:35.144Z,8.07
2024-02-07T03:13:02.147Z,4.45
2024-02-07T03:15:29.685Z,8.05
2024-02-07T03:17:56.573Z,4.40
2024-02-07T03:20:24.564Z,8.18
2024-02-07T03:22:52.493Z,5.03
2024-02-07T03:25:22.239Z,6.38
2024-02-07T03:27:52.107Z,8.15
2024-02-07T03:30:23.374Z,8.18
2024-02-07T03:32:52.219Z,7.38
2024-02-07T03:35:22.050Z,8.25
2024-02-07T03:37:49.665Z,8.43
2024-02-07T03:40:16.713Z,8.07
2024-02-07T03:42:44.832Z,5.70
2024-02-07T03:45:18.463Z,4.15
2024-02-07T03:47:45.631Z,9.98
2024-02-07T03:50:13.418Z,8.50
2024-02-07T03:52:43.691Z,9.52
2024-02-07T03:55:11.889Z,4.40
2024-02-07T03:57:39.260Z,6.93
2024-02-07T04:00:09.638Z,9.23
2024-02-07T04:02:40.810Z,5.13
2024-02-07T04:05:12.607Z,6.13
2024-02-07T04:07:40.402Z,4.30
2024-02-07T04:10:11.101Z,11.10
2024-02-07T04:12:41.661Z,5.22
2024-02-07T04:15:27.846Z,7.93
2024-02-07T04:18:17.981Z,4.53
2024-02-07T04:21:11.211Z,11.43
2024-02-07T04:23:57.424Z,8.63
2024-02-07T04:26:47.475Z,7.15
2024-02-07T04:29:33.409Z,8.35
2024-02-07T04:32:19.183Z,6.93
2024-02-07T04:35:05.183Z,5.60
2024-02-07T04:37:50.684Z,6.60
2024-02-07T04:40:36.155Z,4.43
2024-02-07T04:43:21.885Z,2.45
2024-02-07T04:46:07.473Z,9.77
2024-02-07T04:48:53.187Z,5.80
2024-02-07T04:51:38.509Z,5.50
2024-02-07T04:54:23.918Z,11.57
2024-02-07T04:57:09.302Z,10.20
2024-02-07T04:59:54.882Z,9.85
2024-02-07T05:02:40.441Z,10.50
2024-02-07T05:05:25.807Z,7.40
2024-02-07T05:08:11.235Z,15.02
2024-02-07T05:10:56.589Z,7.75
2024-02-07T05:13:42.034Z,7.50
2024-02-07T05:16:13.197Z,10.77
2024-02-07T05:18:40.668Z,9.43
2024-02-07T05:21:14.610Z,11.13
2024-02-07T05:23:41.955Z,8.82
2024-02-07T05:26:13.205Z,5.80
2024-02-07T05:28:41.722Z,6.00
2024-02-07T05:31:08.529Z,12.20
2024-02-07T05:33:35.488Z,17.42
2024-02-07T05:36:02.345Z,10.20
2024-02-07T05:38:29.070Z,5.78
2024-02-07T05:40:56.814Z,13.77
2024-02-07T05:43:23.916Z,9.20
2024-02-07T05:45:51.131Z,16.48
2024-02-07T05:48:17.998Z,10.18
2024-02-07T05:50:46.303Z,8.52
2024-02-07T05:53:13.072Z,13.88
2024-02-07T05:55:39.874Z,8.52
2024-02-07T05:58:06.725Z,12.82
2024-02-07T06:00:33.673Z,15.40
2024-02-07T06:03:01.943Z,12.88
2024-02-07T06:05:30.123Z,13.20
2024-02-07T06:07:57.073Z,8.98
2024-02-07T06:10:23.984Z,15.50
2024-02-07T06:12:50.697Z,11.85
2024-02-07T06:15:17.428Z,10.57
2024-02-07T06:17:44.226Z,13.60
2024-02-07T06:20:11.619Z,13.95
2024-02-07T06:22:38.954Z,9.27
2024-02-07T06:25:06.153Z,14.80
2024-02-07T06:27:32.872Z,10.18
2024-02-07T06:29:59.593Z,11.48
2024-02-07T06:32:26.693Z,11.50
2024-02-07T06:34:53.569Z,26.67
2024-02-07T06:37:20.606Z,30.65
2024-02-07T06:39:47.326Z,28.95
2024-02-07T06:42:14.081Z,17.73
2024-02-07T06:44:40.920Z,12.45
2024-02-07T06:47:07.632Z,15.07
2024-02-07T06:49:37.958Z,13.20
2024-02-07T06:52:05.849Z,18.02
2024-02-07T06:54:32.814Z,14.57
2024-02-07T06:56:59.714Z,17.00
2024-02-07T06:59:26.593Z,17.08
2024-02-07T07:01:53.512Z,10.48
2024-02-07T07:04:20.300Z,10.77
2024-02-07T07:06:47.100Z,13.25
2024-02-07T07:09:13.889Z,12.65
2024-02-07T07:11:40.633Z,23.00
2024-02-07T07:14:08.488Z,35.53
2024-02-07T07:16:35.343Z,20.17
2024-02-07T07:19:03.128Z,18.33
2024-02-07T07:21:31.703Z,15.35
2024-02-07T07:23:59.514Z,19.98
2024-02-07T07:26:26.695Z,14.55
2024-02-07T07:28:55.709Z,13.93
2024-02-07T07:31:22.587Z,13.10
2024-02-07T07:33:49.408Z,15.18
2024-02-07T07:36:19.114Z,13.23
2024-02-07T07:38:47.538Z,14.32
2024-02-07T07:41:14.326Z,16.73
2024-02-07T07:43:41.140Z,12.07
2024-02-07T07:46:10.113Z,18.52
2024-02-07T07:48:37.236Z,15.85
2024-02-07T07:51:04.321Z,18.77
2024-02-07T07:53:31.036Z,11.55
2024-02-07T07:55:57.752Z,15.60
2024-02-07T07:58:29.039Z,15.23
2024-02-07T08:01:01.085Z,13.68
2024-02-07T08:03:27.776Z,21.08
2024-02-07T08:05:54.476Z,15.48
2024-02-07T08:08:21.304Z,12.10
2024-02-07T08:10:48.262Z,14.27
2024-02-07T08:13:15.091Z,11.43
2024-02-07T08:15:41.839Z,11.82
2024-02-07T08:18:09.763Z,18.33
2024-02-07T08:20:36.560Z,17.20
2024-02-07T08:23:03.392Z,21.23
2024-02-07T08:25:30.151Z,11.85
2024-02-07T08:27:56.821Z,20.23
2024-02-07T08:30:23.505Z,14.23
2024-02-07T08:32:51.303Z,19.02
2024-02-07T08:35:18.372Z,10.13
2024-02-07T08:37:48.618Z,18.58
2024-02-07T08:40:16.382Z,15.40
2024-02-07T08:42:43.311Z,16.00
2024-02-07T08:45:11.528Z,14.07
2024-02-07T08:47:38.318Z,15.52
2024-02-07T08:50:05.702Z,12.30
2024-02-07T08:52:32.503Z,13.93
2024-02-07T08:55:00.186Z,19.10
2024-02-07T08:57:34.999Z,18.95
2024-02-07T09:00:08.131Z,14.25
2024-02-07T09:02:37.448Z,11.38
2024-02-07T09:05:07.527Z,12.57
2024-02-07T09:07:35.439Z,13.43
2024-02-07T09:10:04.536Z,11.50
2024-02-07T09:12:31.311Z,15.35
2024-02-07T09:14:58.278Z,16.77
2024-02-07T09:17:26.385Z,17.75
2024-02-07T09:19:54.306Z,13.43
2024-02-07T09:22:21.096Z,11.00
2024-02-07T09:24:47.992Z,12.52
2024-02-07T09:27:14.849Z,18.92
2024-02-07T09:29:41.528Z,16.15
2024-02-07T09:32:08.342Z,11.30
2024-02-07T09:34:35.279Z,13.50
2024-02-07T09:37:02.902Z,14.68
2024-02-07T09:39:29.637Z,9.52
2024-02-07T09:42:00.222Z,13.75
2024-02-07T09:44:31.934Z,11.32
2024-02-07T09:47:01.621Z,11.47
2024-02-07T09:49:29.633Z,17.60
2024-02-07T09:51:57.196Z,9.25
2024-02-07T09:54:24.643Z,15.63
2024-02-07T09:56:53.332Z,15.30
2024-02-07T09:59:21.429Z,13.70
2024-02-07T10:01:49.093Z,14.50
2024-02-07T10:04:25.062Z,14.27
2024-02-07T10:06:53.644Z,11.23
2024-02-07T10:09:21.761Z,12.32
2024-02-07T10:11:49.838Z,9.88
2024-02-07T10:14:18.317Z,13.80
2024-02-07T10:16:46.129Z,11.25
2024-02-07T10:19:13.419Z,11.98
2024-02-07T10:21:40.272Z,12.50
2024-02-07T10:24:07.852Z,13.27
2024-02-07T10:26:34.809Z,13.07
2024-02-07T10:29:03.090Z,10.05
2024-02-07T10:31:30.199Z,9.63
2024-02-07T10:34:00.452Z,8.52
2024-02-07T10:36:27.628Z,11.40
2024-02-07T10:39:02.865Z,8.35
2024-02-07T10:41:30.004Z,11.05
2024-02-07T10:44:10.714Z,12.18
2024-02-07T10:46:37.772Z,6.55
2024-02-07T10:49:04.876Z,10.55
2024-02-07T10:51:32.949Z,6.07
2024-02-07T10:54:06.210Z,12.85
2024-02-07T10:56:36.498Z,12.55
2024-02-07T10:59:05.163Z,9.27
2024-02-07T11:01:33.254Z,12.70
2024-02-07T11:04:01.178Z,13.30
2024-02-07T11:06:29.313Z,9.43
2024-02-07T11:08:57.933Z,16.40
2024-02-07T11:11:26.690Z,13.77
2024-02-07T11:13:54.255Z,9.15
2024-02-07T11:16:21.795Z,8.90
2024-02-07T11:18:48.833Z,11.05
2024-02-07T11:21:22.013Z,13.45
2024-02-07T11:23:50.935Z,17.55
2024-02-07T11:26:19.232Z,10.05
2024-02-07T11:28:47.854Z,9.90
2024-02-07T11:31:17.999Z,7.85
2024-02-07T11:33:48.653Z,8.15
2024-02-07T11:36:17.468Z,13.38
2024-02-07T11:38:57.188Z,7.90
2024-02-07T11:41:25.206Z,8.98
2024-02-07T11:43:56.059Z,13.95
2024-02-07T11:46:24.452Z,6.68
2024-02-07T11:48:53.687Z,10.05
2024-02-07T11:51:24.821Z,15.82
2024-02-07T11:53:59.892Z,9.25
2024-02-07T11:56:27.602Z,12.32
2024-02-07T11:58:55.143Z,10.68
2024-02-07T12:01:27.543Z,15.23
2024-02-07T12:03:58.742Z,14.73
2024-02-07T12:06:26.145Z,8.48
2024-02-07T12:08:53.999Z,10.20
2024-02-07T12:11:20.908Z,4.55
2024-02-07T12:13:47.806Z,9.30
2024-02-07T12:16:17.808Z,7.78
2024-02-07T12:18:45.697Z,9.15
2024-02-07T12:21:12.845Z,13.32
2024-02-07T12:23:39.848Z,9.35
2024-02-07T12:26:06.839Z,7.47
2024-02-07T12:28:34.278Z,9.25
2024-02-07T12:31:02.065Z,15.13
2024-02-07T12:33:29.394Z,8.82
2024-02-07T12:36:04.235Z,5.28
2024-02-07T12:38:31.946Z,7.47
2024-02-07T12:41:00.157Z,8.50
2024-02-07T12:43:27.947Z,8.57
2024-02-07T12:45:59.631Z,13.85
2024-02-07T12:48:27.127Z,9.48
2024-02-07T12:50:55.866Z,8.93
2024-02-07T12:53:23.783Z,10.27
2024-02-07T12:55:51.164Z,6.97
2024-02-07T12:58:18.302Z,7.80
2024-02-07T13:00:47.547Z,9.15
2024-02-07T13:03:15.082Z,8.68
2024-02-07T13:05:42.322Z,10.63
2024-02-07T13:08:13.383Z,9.43
2024-02-07T13:10:50.780Z,12.93
2024-02-07T13:13:18.931Z,9.43
2024-02-07T13:15:45.734Z,11.80
2024-02-07T13:18:12.714Z,7.80
2024-02-07T13:20:39.974Z,8.15
2024-02-07T13:23:06.955Z,9.25
2024-02-07T13:25:34.008Z,9.13
2024-02-07T13:28:01.736Z,8.65
2024-02-07T13:30:28.581Z,6.55
2024-02-07T13:32:55.389Z,9.00
2024-02-07T13:35:22.241Z,7.45
2024-02-07T13:37:49.371Z,6.82
2024-02-07T13:40:17.053Z,10.07
2024-02-07T13:42:44.463Z,6.57
2024-02-07T13:45:11.255Z,10.40
2024-02-07T13:47:38.134Z,7.32
2024-02-07T13:50:05.448Z,9.38
2024-02-07T13:52:32.578Z,6.32
2024-02-07T13:54:59.427Z,8.60
2024-02-07T13:57:26.122Z,8.55
2024-02-07T13:59:52.893Z,8.15
2024-02-07T14:02:19.992Z,7.88
2024-02-07T14:04:46.870Z,9.43
2024-02-07T14:07:13.793Z,5.95
2024-02-07T14:09:40.930Z,13.15
2024-02-07T14:12:08.054Z,6.15
2024-02-07T14:14:36.248Z,9.65
2024-02-07T14:17:03.066Z,10.85
2024-02-07T14:19:30.074Z,9.43
2024-02-07T14:21:56.884Z,5.53
2024-02-07T14:24:23.633Z,6.80
2024-02-07T14:26:50.354Z,7.15
2024-02-07T14:29:17.037Z,9.05
2024-02-07T14:31:45.075Z,10.13
2024-02-07T14:34:15.844Z,5.22
2024-02-07T14:36:43.228Z,10.63
2024-02-07T14:39:10.082Z,12.20
2024-02-07T14:41:36.858Z,8.90
2024-02-07T14:44:03.656Z,4.18
2024-02-07T14:46:30.657Z,9.82
2024-02-07T14:48:57.448Z,4.00
2024-02-07T14:51:24.314Z,10.93
2024-02-07T14:53:51.163Z,6.63
2024-02-07T14:56:18.064Z,6.38
2024-02-07T14:58:44.798Z,9.45
2024-02-07T15:01:11.548Z,6.10
2024-02-07T15:03:41.979Z,5.82
2024-02-07T15:06:09.975Z,7.32
2024-02-07T15:08:37.035Z,5.60
2024-02-07T15:11:05.491Z,8.60
2024-02-07T15:13:32.478Z,4.32
2024-02-07T15:15:59.358Z,7.38
2024-02-07T15:18:26.420Z,5.25
2024-02-07T15:20:53.153Z,4.72
2024-02-07T15:23:19.900Z,8.00
2024-02-07T15:25:51.128Z,5.97
2024-02-07T15:28:19.504Z,6.88
2024-02-07T15:30:47.752Z,8.38
2024-02-07T15:33:14.968Z,5.55
2024-02-07T15:35:42.130Z,7.10
2024-02-07T15:38:08.991Z,9.30
2024-02-07T15:40:35.944Z,8.70
2024-02-07T15:43:02.802Z,5.75
2024-02-07T15:45:29.550Z,6.55
2024-02-07T15:47:56.623Z,7.25
2024-02-07T15:50:23.571Z,9.18
2024-02-07T15:52:50.578Z,6.20
2024-02-07T15:55:17.590Z,3.25
2024-02-07T15:57:44.404Z,6.95
2024-02-07T16:00:11.523Z,8.65
2024-02-07T16:02:41.591Z,4.75
2024-02-07T16:05:09.273Z,5.85
2024-02-07T16:07:36.456Z,7.32
2024-02-07T16:10:07.446Z,7.90
2024-02-07T16:12:34.197Z,5.45
2024-02-07T16:15:04.606Z,9.48
2024-02-07T16:17:34.286Z,6.57
2024-02-07T16:20:02.100Z,6.72
2024-02-07T16:22:29.100Z,6.05
2024-02-07T16:24:55.885Z,4.65
2024-02-07T16:27:22.647Z,6.13
2024-02-07T16:29:49.364Z,9.20
2024-02-07T16:32:16.110Z,3.75
2024-02-07T16:34:44.256Z,4.80
2024-02-07T16:37:23.615Z,8.68
2024-02-07T16:39:52.795Z,6.03
2024-02-07T16:42:19.818Z,6.20
2024-02-07T16:45:02.231Z,4.10
2024-02-07T16:47:47.397Z,6.63
2024-02-07T16:50:20.498Z,6.15
2024-02-07T16:52:54.524Z,19.08
2024-02-07T16:55:30.885Z,22.20
2024-02-07T16:57:58.933Z,12.48
2024-02-07T17:00:27.539Z,13.52
2024-02-07T17:02:55.030Z,8.45
2024-02-07T17:05:22.580Z,3.60
2024-02-07T17:07:51.370Z,5.15
2024-02-07T17:10:19.792Z,4.28
2024-02-07T17:12:47.258Z,3.55
2024-02-07T17:15:14.285Z,6.70
2024-02-07T17:17:43.550Z,11.68
2024-02-07T17:20:11.430Z,7.45
2024-02-07T17:22:38.718Z,7.07
2024-02-07T17:25:06.269Z,5.00
2024-02-07T17:27:34.494Z,5.45
2024-02-07T17:30:04.519Z,5.70
2024-02-07T17:32:34.287Z,4.32
2024-02-07T17:35:03.457Z,5.30
2024-02-07T17:37:31.836Z,10.57
2024-02-07T17:40:01.474Z,7.20
2024-02-07T17:42:32.163Z,4.95
2024-02-07T17:45:00.094Z,7.90
2024-02-07T17:47:28.885Z,4.30
2024-02-07T17:49:56.189Z,6.80
2024-02-07T17:52:24.908Z,9.98
2024-02-07T17:54:52.791Z,4.07
2024-02-07T17:57:20.326Z,12.48
2024-02-07T17:59:48.342Z,7.57
2024-02-07T18:02:15.397Z,7.13
2024-02-07T18:04:42.420Z,8.15
2024-02-07T18:07:10.296Z,8.32
2024-02-07T18:09:37.240Z,7.03
2024-02-07T18:12:05.726Z,12.23
2024-02-07T18:14:32.726Z,6.35
2024-02-07T18:16:59.619Z,7.38
2024-02-07T18:19:26.780Z,9.95
2024-02-07T18:21:53.809Z,6.75
2024-02-07T18:24:20.748Z,13.52
2024-02-07T18:26:48.379Z,9.70
2024-02-07T18:29:15.928Z,8.88
2024-02-07T18:31:42.726Z,5.93
2024-02-07T18:34:10.112Z,5.15
2024-02-07T18:36:38.305Z,8.02
2024-02-07T18:39:05.669Z,7.25
2024-02-07T18:41:33.544Z,7.13
2024-02-07T18:44:00.595Z,7.72
2024-02-07T18:46:27.498Z,6.88
2024-02-07T18:48:56.354Z,7.20
2024-02-07T18:51:26.602Z,4.97
2024-02-07T18:53:53.497Z,7.03
2024-02-07T18:56:20.350Z,4.82
2024-02-07T18:58:47.261Z,8.40
2024-02-07T19:01:14.504Z,5.10
2024-02-07T19:03:41.411Z,8.60
2024-02-07T19:06:09.047Z,8.20
2024-02-07T19:08:36.477Z,11.77
2024-02-07T19:11:03.622Z,4.90
2024-02-07T19:13:30.654Z,10.88
2024-02-07T19:15:57.398Z,9.55
2024-02-07T19:18:24.266Z,14.73
2024-02-07T19:20:51.069Z,8.75
2024-02-07T19:23:17.875Z,6.28
2024-02-07T19:25:44.752Z,7.45
2024-02-07T19:28:11.509Z,5.93
2024-02-07T19:30:38.249Z,4.63
2024-02-07T19:33:06.305Z,9.48
2024-02-07T19:35:33.170Z,6.57
2024-02-07T19:38:00.065Z,8.85
2024-02-07T19:40:27.356Z,9.73
2024-02-07T19:42:54.122Z,8.75
2024-02-07T19:45:20.889Z,8.65
2024-02-07T19:47:47.667Z,8.75
2024-02-07T19:50:15.791Z,10.88
2024-02-07T19:52:43.165Z,6.72
2024-02-07T19:55:10.228Z,10.30
2024-02-07T19:57:37.001Z,8.85
2024-02-07T20:00:04.104Z,10.35
2024-02-07T20:02:38.496Z,5.55
2024-02-07T20:05:05.706Z,4.85
2024-02-07T20:07:32.510Z,5.30
2024-02-07T20:10:03.988Z,5.97
2024-02-07T20:12:31.666Z,6.65
2024-02-07T20:15:00.807Z,9.68
2024-02-07T20:17:27.650Z,7.03
2024-02-07T20:19:54.534Z,9.25
2024-02-07T20:22:21.558Z,9.00
2024-02-07T20:24:48.485Z,8.18
2024-02-07T20:27:15.178Z,5.32
2024-02-07T20:29:42.293Z,10.00
2024-02-07T20:32:09.060Z,6.90
2024-02-07T20:34:39.874Z,9.35
2024-02-07T20:37:09.069Z,5.38
2024-02-07T20:39:36.052Z,11.80
2024-02-07T20:42:03.011Z,5.93
2024-02-07T20:44:30.325Z,9.15
2024-02-07T20:46:57.434Z,5.15
2024-02-07T20:49:24.402Z,14.65
2024-02-07T20:51:51.581Z,6.70
2024-02-07T20:54:18.380Z,5.65
2024-02-07T20:56:45.234Z,7.72
2024-02-07T20:59:12.032Z,12.63
2024-02-07T21:01:38.993Z,6.50
2024-02-07T21:04:05.849Z,8.35
2024-02-07T21:06:32.673Z,14.48
2024-02-07T21:09:00.309Z,7.20
2024-02-07T21:11:28.538Z,8.77
2024-02-07T21:13:55.438Z,10.07
2024-02-07T21:16:22.241Z,8.65
2024-02-07T21:18:49.281Z,8.63
2024-02-07T21:21:16.621Z,9.85
2024-02-07T21:23:43.836Z,9.52
2024-02-07T21:26:11.605Z,10.90
2024-02-07T21:28:39.116Z,5.95
2024-02-07T21:31:06.462Z,11.60
2024-02-07T21:33:33.474Z,13.15
2024-02-07T21:36:01.282Z,10.05
2024-02-07T21:38:28.139Z,7.55
2024-02-07T21:40:55.053Z,9.90
2024-02-07T21:43:21.939Z,9.10
2024-02-07T21:45:48.991Z,7.68
2024-02-07T21:48:16.008Z,9.80
2024-02-07T21:50:43.122Z,7.82
2024-02-07T21:53:10.006Z,7.30
2024-02-07T21:55:36.932Z,8.60
2024-02-07T21:58:05.011Z,10.95
2024-02-07T22:00:32.160Z,10.45
2024-02-07T22:02:58.865Z,6.07
2024-02-07T22:05:25.788Z,9.77
2024-02-07T22:07:54.534Z,12.95
2024-02-07T22:10:21.666Z,12.40
2024-02-07T22:12:48.594Z,9.60
2024-02-07T22:15:15.473Z,8.43
2024-02-07T22:17:42.314Z,12.98
2024-02-07T22:20:10.048Z,17.95
2024-02-07T22:22:37.475Z,21.15
2024-02-07T22:25:07.527Z,23.77
2024-02-07T22:27:37.872Z,18.67
2024-02-07T22:30:05.344Z,12.68
2024-02-07T22:32:32.476Z,16.52
2024-02-07T22:34:59.930Z,17.02
2024-02-07T22:37:26.884Z,12.38
2024-02-07T22:39:53.911Z,9.68
2024-02-07T22:42:20.701Z,10.93
2024-02-07T22:44:47.453Z,13.15
2024-02-07T22:47:14.350Z,11.90
2024-02-07T22:49:42.988Z,12.88
2024-02-07T22:52:10.078Z,10.43
2024-02-07T22:54:36.744Z,8.05
2024-02-07T22:57:03.874Z,11.18
2024-02-07T22:59:30.724Z,10.15
2024-02-07T23:01:57.597Z,11.05
2024-02-07T23:04:24.541Z,8.52
2024-02-07T23:06:52.723Z,9.40
2024-02-07T23:09:19.635Z,10.50
2024-02-07T23:11:46.873Z,11.90
2024-02-07T23:14:13.881Z,9.80
2024-02-07T23:16:42.330Z,11.77
2024-02-07T23:19:09.182Z,8.70
2024-02-07T23:21:37.127Z,11.32
2024-02-07T23:24:05.268Z,8.07
2024-02-07T23:26:32.118Z,11.90
2024-02-07T23:28:59.908Z,11.00
2024-02-07T23:31:26.893Z,11.95
2024-02-07T23:33:54.657Z,9.93
2024-02-07T23:36:21.665Z,7.82
2024-02-07T23:38:48.430Z,11.63
2024-02-07T23:41:15.097Z,11.05
2024-02-07T23:43:41.863Z,12.65
2024-02-07T23:46:08.611Z,15.77
2024-02-07T23:48:35.418Z,11.73
2024-02-07T23:51:02.227Z,12.63
2024-02-07T23:53:29.006Z,10.90
2024-02-07T23:55:55.787Z,8.57
2024-02-07T23:58:22.638Z,13.30
